CheckWX is a tool to help pilots better visualize weather data.  It is not intended as a substitute for an official pre-flight weather briefing.

12:43:04 UTC

KLOU METAR
Bowman Field Airport
Louisville, Kentucky, USA
Current

50 mins ago

KLOU 221153Z 03007KT 10SM BKN080 04/M01 A3033 RMK AO2 SLP272 T00391011 10056 20039 53022
Observed
Feb-22 @ 11:53 UTC
Wind
  • 030° at 7 KTS
Visibility
10 SM
Flight Rules
VFR
Cloud Levels
  • Broken at 8,000' AGL
Temperature
C / 39°F
Dewpoint
-1°C / 30°F
Humidity
70%
Altimeter
30.33" Hg
Pressure
1027.2 hPa
Previous

2 hours ago

KLOU 221053Z AUTO 01007KT 10SM CLR 04/M02 A3030 RMK AO2 SLP262 T00441017
Observed
Feb-22 @ 10:53 UTC
Wind
  • 010° at 7 KTS
Visibility
10 SM
Flight Rules
VFR
Cloud Levels
  • Clear skies
Temperature
C / 39°F
Dewpoint
-2°C / 28°F
Humidity
65%
Altimeter
30.3" Hg
Pressure
1026.2 hPa
Previous

3 hours ago

KLOU 220953Z AUTO 06004KT 10SM CLR 04/M02 A3027 RMK AO2 SLP251 T00441017
Observed
Feb-22 @ 09:53 UTC
Wind
  • 060° at 4 KTS
Visibility
10 SM
Flight Rules
VFR
Cloud Levels
  • Clear skies
Temperature
C / 39°F
Dewpoint
-2°C / 28°F
Humidity
65%
Altimeter
30.27" Hg
Pressure
1025.1 hPa